Time;durP1;ratioP1;P1;durP2;ratioP2;P2;SDS_P1;SDS_P2;PMS_P1;PMS_P2;Temp;Humidity;BMP_temperature;BMP_pressure;BME280_temperature;BME280_humidity;BME280_pressure;Samples;Min_cycle;Max_cycle;Signal;HPM_P1;HPM_P2
2021/03/27 00:01:46;;;;;;;2.50;1.50;;;;;;;;;;5029276;28;20418;-74
2021/03/27 00:04:15;;;;;;;6.20;2.17;;;;;;;;;;5067501;28;20397;-76
2021/03/27 00:06:45;;;;;;;3.60;1.93;;;;;;;;;;5014496;28;20419;-74
2021/03/27 00:09:21;;;;;;;4.83;1.70;;;;;;;;;;5032352;28;20401;-75
2021/03/27 00:11:47;;;;;;;5.03;2.23;;;;;;;;;;5047483;28;20942;-75
2021/03/27 00:14:18;;;;;;;6.57;3.10;;;;;;;;;;5043198;28;20486;-75
2021/03/27 00:16:59;;;;;;;7.27;2.30;;;;;;;;;;5022035;28;20500;-74
2021/03/27 00:19:52;;;;;;;2.37;2.17;;;;;;;;;;5034216;28;20403;-74
2021/03/27 00:22:21;;;;;;;6.27;2.07;;;;;;;;;;5032080;28;20411;-75
2021/03/27 00:25:06;;;;;;;7.00;2.13;;;;;;;;;;5034542;28;20777;-77
2021/03/27 00:27:38;;;;;;;1.40;1.30;;;;;;;;;;5052132;28;20423;-76
2021/03/27 00:30:12;;;;;;;2.27;1.90;;;;;;;;;;5017285;28;20426;-76
2021/03/27 00:32:45;;;;;;;1.50;1.30;;;;;;;;;;5031897;28;20396;-75
2021/03/27 00:35:15;;;;;;;3.23;2.20;;;;;;;;;;5013955;28;20489;-74
2021/03/27 00:37:42;;;;;;;2.13;1.90;;;;;;;;;;5038160;23;20454;-69
2021/03/27 00:40:08;;;;;;;3.13;1.93;;;;;;;;;;5054181;28;20461;-68
2021/03/27 00:42:37;;;;;;;5.83;2.77;;;;;;;;;;5049945;28;20403;-68
2021/03/27 00:45:07;;;;;;;3.50;2.47;;;;;;;;;;5047058;28;21042;-69
2021/03/27 00:47:36;;;;;;;3.27;2.53;;;;;;;;;;5065168;28;20430;-67
2021/03/27 00:50:08;;;;;;;2.93;1.70;;;;;;;;;;5059152;28;20439;-69
2021/03/27 00:52:37;;;;;;;1.73;1.63;;;;;;;;;;5035616;28;20926;-69
2021/03/27 00:55:06;;;;;;;1.90;1.17;;;;;;;;;;5052207;28;20966;-69
2021/03/27 00:57:34;;;;;;;1.80;0.90;;;;;;;;;;5052860;28;20411;-67
2021/03/27 01:00:09;;;;;;;2.37;2.17;;;;;;;;;;5048540;28;20451;-68
2021/03/27 01:02:36;;;;;;;1.70;1.57;;;;;;;;;;5067040;28;20406;-65
2021/03/27 01:05:05;;;;;;;3.93;2.07;;;;;;;;;;5049144;28;20504;-68
2021/03/27 01:07:32;;;;;;;2.50;1.47;;;;;;;;;;5031790;28;20435;-67
2021/03/27 01:10:01;;;;;;;1.73;1.27;;;;;;;;;;5050274;28;20485;-67
2021/03/27 01:12:31;;;;;;;4.83;3.30;;;;;;;;;;5035360;28;20437;-68
2021/03/27 01:15:01;;;;;;;2.43;1.53;;;;;;;;;;5035299;28;20769;-66
2021/03/27 01:17:29;;;;;;;3.70;2.30;;;;;;;;;;5053226;28;20414;-67
2021/03/27 01:19:58;;;;;;;1.53;1.43;;;;;;;;;;5037336;28;20427;-67
2021/03/27 01:22:25;;;;;;;4.30;2.40;;;;;;;;;;5053875;28;20411;-67
2021/03/27 01:24:56;;;;;;;2.70;2.50;;;;;;;;;;5054511;28;20481;-68
2021/03/27 01:27:24;;;;;;;2.83;1.67;;;;;;;;;;5055465;28;20409;-68
2021/03/27 01:29:58;;;;;;;5.13;2.10;;;;;;;;;;5037393;28;20443;-68
2021/03/27 01:32:30;;;;;;;2.37;2.23;;;;;;;;;;5036191;28;20423;-67
2021/03/27 01:35:08;;;;;;;2.87;1.47;;;;;;;;;;5035405;28;20483;-68
2021/03/27 01:37:48;;;;;;;4.20;1.30;;;;;;;;;;5050791;28;20837;-69
2021/03/27 01:40:26;;;;;;;3.30;1.77;;;;;;;;;;5036715;28;20469;-67
2021/03/27 01:43:01;;;;;;;1.70;1.60;;;;;;;;;;5050534;28;20449;-68
2021/03/27 01:45:33;;;;;;;2.13;1.67;;;;;;;;;;5038567;28;20414;-69
2021/03/27 01:47:59;;;;;;;4.00;2.00;;;;;;;;;;5037630;28;20446;-69
2021/03/27 01:50:43;;;;;;;7.23;1.30;;;;;;;;;;5051372;28;20431;-68
2021/03/27 01:53:16;;;;;;;1.97;1.13;;;;;;;;;;5035038;28;20415;-68
2021/03/27 01:55:45;;;;;;;1.63;1.53;;;;;;;;;;5034894;28;20404;-67
2021/03/27 01:58:21;;;;;;;1.93;1.83;;;;;;;;;;5034704;28;20734;-69
2021/03/27 02:00:53;;;;;;;4.40;1.30;;;;;;;;;;5040272;28;20470;-65
2021/03/27 02:03:42;;;;;;;2.83;2.33;;;;;;;;;;5039927;28;20407;-68
2021/03/27 02:06:11;;;;;;;3.50;2.33;;;;;;;;;;5026132;28;20408;-68
2021/03/27 02:09:03;;;;;;;2.53;1.33;;;;;;;;;;5035626;28;20426;-70
2021/03/27 02:11:48;;;;;;;4.20;2.00;;;;;;;;;;5035168;28;20406;-69
2021/03/27 02:14:32;;;;;;;4.40;2.70;;;;;;;;;;5039628;28;20541;-67
2021/03/27 02:17:01;;;;;;;2.60;1.87;;;;;;;;;;5054646;28;20395;-68
2021/03/27 02:19:39;;;;;;;2.03;1.67;;;;;;;;;;5055713;28;21100;-70
2021/03/27 02:22:24;;;;;;;2.70;2.40;;;;;;;;;;5051473;28;20415;-67
2021/03/27 02:25:08;;;;;;;2.90;2.37;;;;;;;;;;5054715;28;20510;-68
2021/03/27 02:27:38;;;;;;;1.67;1.57;;;;;;;;;;5051438;28;20770;-68
2021/03/27 02:30:13;;;;;;;1.80;1.50;;;;;;;;;;5058249;28;20423;-68
2021/03/27 02:32:57;;;;;;;3.80;2.57;;;;;;;;;;5040357;28;20416;-67
2021/03/27 02:35:46;;;;;;;2.07;0.80;;;;;;;;;;5045884;28;20530;-68
2021/03/27 02:38:28;;;;;;;3.53;1.53;;;;;;;;;;5059013;28;20422;-68
2021/03/27 02:40:58;;;;;;;3.23;2.20;;;;;;;;;;5058302;28;20442;-70
2021/03/27 02:43:26;;;;;;;2.40;1.40;;;;;;;;;;5057565;28;20417;-68
2021/03/27 02:46:01;;;;;;;5.70;2.87;;;;;;;;;;5056797;28;20792;-69
2021/03/27 02:48:56;;;;;;;7.03;1.67;;;;;;;;;;5023962;28;20423;-68
2021/03/27 02:51:33;;;;;;;1.43;1.13;;;;;;;;;;5015468;28;20416;-67
2021/03/27 02:54:08;;;;;;;2.03;1.77;;;;;;;;;;5037258;28;20557;-68
2021/03/27 02:56:42;;;;;;;1.40;1.30;;;;;;;;;;5036715;28;20407;-68
2021/03/27 02:59:13;;;;;;;3.37;2.10;;;;;;;;;;5044373;28;20430;-69
2021/03/27 03:01:39;;;;;;;1.83;1.30;;;;;;;;;;5057503;28;20444;-68
2021/03/27 03:04:15;;;;;;;2.07;1.87;;;;;;;;;;5056123;28;20406;-68
2021/03/27 03:06:52;;;;;;;1.83;1.47;;;;;;;;;;5055423;28;20404;-68
2021/03/27 03:09:27;;;;;;;1.87;1.47;;;;;;;;;;5046698;28;20439;-69
2021/03/27 03:12:04;;;;;;;3.23;2.63;;;;;;;;;;5034679;28;20419;-69
2021/03/27 03:14:43;;;;;;;1.93;1.80;;;;;;;;;;5035070;28;20446;-69
2021/03/27 03:17:28;;;;;;;6.50;3.13;;;;;;;;;;5034892;28;20398;-68
2021/03/27 03:19:56;;;;;;;3.40;2.30;;;;;;;;;;5035437;28;20424;-68
2021/03/27 03:22:42;;;;;;;2.10;1.40;;;;;;;;;;5037360;28;20480;-68
2021/03/27 03:25:11;;;;;;;1.73;1.63;;;;;;;;;;5037170;28;20382;-69
2021/03/27 03:27:55;;;;;;;1.40;1.30;;;;;;;;;;5022712;28;20490;-68
2021/03/27 03:30:39;;;;;;;3.57;1.60;;;;;;;;;;5037336;28;20410;-68
2021/03/27 03:33:08;;;;;;;1.47;1.00;;;;;;;;;;5036422;28;20416;-68
2021/03/27 03:35:53;;;;;;;3.33;1.70;;;;;;;;;;5033210;28;20455;-69
2021/03/27 03:38:40;;;;;;;5.37;1.90;;;;;;;;;;5033779;28;20426;-68
2021/03/27 03:41:26;;;;;;;3.10;1.77;;;;;;;;;;5049211;28;20752;-67
2021/03/27 03:43:55;;;;;;;1.50;1.40;;;;;;;;;;5056504;28;20454;-67
2021/03/27 03:46:31;;;;;;;1.10;1.00;;;;;;;;;;5040199;28;20414;-67
2021/03/27 03:49:24;;;;;;;3.10;2.23;;;;;;;;;;5040744;28;20437;-68
2021/03/27 03:51:58;;;;;;;2.57;1.23;;;;;;;;;;5050784;28;20500;-68
2021/03/27 03:54:42;;;;;;;1.30;1.03;;;;;;;;;;5040448;28;20482;-69
2021/03/27 03:57:34;;;;;;;1.73;1.20;;;;;;;;;;5056505;28;20932;-67
2021/03/27 04:00:15;;;;;;;1.13;0.73;;;;;;;;;;5056845;28;20446;-68
2021/03/27 04:02:44;;;;;;;1.83;1.30;;;;;;;;;;5048375;28;20915;-68
2021/03/27 04:05:28;;;;;;;1.77;1.10;;;;;;;;;;5038332;28;20465;-69
2021/03/27 04:08:00;;;;;;;6.13;1.70;;;;;;;;;;5037847;28;20404;-68
2021/03/27 04:10:28;;;;;;;3.77;1.20;;;;;;;;;;5037610;28;20423;-68
2021/03/27 04:12:58;;;;;;;2.07;1.27;;;;;;;;;;5036051;28;20427;-69
2021/03/27 04:15:42;;;;;;;1.83;1.60;;;;;;;;;;5034931;28;20493;-67
2021/03/27 04:18:14;;;;;;;1.60;1.50;;;;;;;;;;5055178;28;20399;-68
2021/03/27 04:20:49;;;;;;;1.73;1.60;;;;;;;;;;5056403;28;20397;-68
2021/03/27 04:23:25;;;;;;;1.63;1.03;;;;;;;;;;5039417;28;20440;-67
2021/03/27 04:26:03;;;;;;;1.67;1.17;;;;;;;;;;5038942;28;20382;-68
2021/03/27 04:28:48;;;;;;;1.03;0.90;;;;;;;;;;5055920;28;20403;-69
2021/03/27 04:31:35;;;;;;;2.40;1.40;;;;;;;;;;5053005;28;20395;-67
2021/03/27 04:34:04;;;;;;;0.90;0.90;;;;;;;;;;5053716;28;20550;-68
2021/03/27 04:36:33;;;;;;;2.90;1.20;;;;;;;;;;5053890;28;20440;-67
2021/03/27 04:39:02;;;;;;;0.80;0.60;;;;;;;;;;5020815;28;20950;-67
2021/03/27 04:41:31;;;;;;;1.20;0.70;;;;;;;;;;5033144;28;20399;-68
2021/03/27 04:44:16;;;;;;;1.00;0.60;;;;;;;;;;5033484;28;20472;-68
2021/03/27 04:46:54;;;;;;;0.80;0.60;;;;;;;;;;5034263;28;20452;-67
2021/03/27 04:49:26;;;;;;;2.10;1.57;;;;;;;;;;5050812;28;20533;-69
2021/03/27 04:52:11;;;;;;;0.93;0.83;;;;;;;;;;5016630;28;20415;-66
2021/03/27 04:54:45;;;;;;;1.00;0.60;;;;;;;;;;5032729;28;20460;-68
2021/03/27 04:57:14;;;;;;;1.07;0.70;;;;;;;;;;5035375;28;20420;-67
2021/03/27 04:59:40;;;;;;;0.90;0.80;;;;;;;;;;5033959;28;20426;-69
2021/03/27 05:02:09;;;;;;;1.87;0.87;;;;;;;;;;5036766;28;20434;-70
2021/03/27 05:04:41;;;;;;;0.70;0.50;;;;;;;;;;5015254;28;20472;-67
2021/03/27 05:07:20;;;;;;;1.63;0.60;;;;;;;;;;5033604;28;20889;-68
2021/03/27 05:10:04;;;;;;;0.73;0.57;;;;;;;;;;5033947;28;20755;-67
2021/03/27 05:12:36;;;;;;;0.90;0.70;;;;;;;;;;5052547;28;20427;-68
2021/03/27 05:15:22;;;;;;;0.70;0.40;;;;;;;;;;5052765;28;20465;-66
2021/03/27 05:17:48;;;;;;;0.80;0.70;;;;;;;;;;5034956;28;20445;-67
2021/03/27 05:20:17;;;;;;;0.70;0.60;;;;;;;;;;5055028;22;20591;-74
2021/03/27 05:22:47;;;;;;;0.80;0.60;;;;;;;;;;5029567;28;20466;-75
2021/03/27 05:25:22;;;;;;;0.70;0.50;;;;;;;;;;5017853;28;20470;-75
2021/03/27 05:27:54;;;;;;;0.70;0.50;;;;;;;;;;5036533;28;21040;-73
2021/03/27 05:30:20;;;;;;;0.70;0.50;;;;;;;;;;5031673;28;20923;-79
2021/03/27 05:32:55;;;;;;;0.80;0.80;;;;;;;;;;5017647;28;20407;-78
2021/03/27 05:35:40;;;;;;;0.80;0.70;;;;;;;;;;5028789;28;20463;-76
2021/03/27 05:38:30;;;;;;;0.70;0.50;;;;;;;;;;5029681;28;20946;-76
2021/03/27 05:40:59;;;;;;;0.70;0.40;;;;;;;;;;5029998;28;20414;-77
2021/03/27 05:43:43;;;;;;;0.70;0.50;;;;;;;;;;5012647;28;20406;-76
2021/03/27 05:46:28;;;;;;;0.70;0.40;;;;;;;;;;5029555;28;20485;-76
2021/03/27 05:49:12;;;;;;;0.80;0.57;;;;;;;;;;5032790;28;20432;-74
2021/03/27 05:51:57;;;;;;;1.37;1.27;;;;;;;;;;5018268;28;20488;-73
2021/03/27 05:54:42;;;;;;;0.70;0.50;;;;;;;;;;5013553;28;20460;-75
2021/03/27 05:57:27;;;;;;;1.20;0.63;;;;;;;;;;5023469;28;20407;-77
2021/03/27 05:59:53;;;;;;;0.70;0.47;;;;;;;;;;5024602;28;20447;-76
2021/03/27 06:02:25;;;;;;;1.00;0.50;;;;;;;;;;5014682;28;20942;-75
2021/03/27 06:05:10;;;;;;;0.70;0.60;;;;;;;;;;5017143;28;20431;-75
2021/03/27 06:08:02;;;;;;;0.70;0.40;;;;;;;;;;5015788;28;20403;-73
2021/03/27 06:10:31;;;;;;;0.70;0.50;;;;;;;;;;5031320;28;20409;-76
2021/03/27 06:12:57;;;;;;;0.70;0.50;;;;;;;;;;5033737;28;20433;-75
2021/03/27 06:15:26;;;;;;;3.90;0.73;;;;;;;;;;5018441;28;20510;-80
2021/03/27 06:17:59;;;;;;;0.90;0.60;;;;;;;;;;5042576;28;20468;-76
2021/03/27 06:20:42;;;;;;;0.70;0.50;;;;;;;;;;5033220;28;20425;-75
2021/03/27 06:23:08;;;;;;;0.80;0.60;;;;;;;;;;5016699;28;20474;-74
2021/03/27 06:25:40;;;;;;;0.70;0.53;;;;;;;;;;5028524;28;20412;-77
2021/03/27 06:28:17;;;;;;;1.10;1.00;;;;;;;;;;5051103;28;20526;-74
2021/03/27 06:31:07;;;;;;;0.87;0.83;;;;;;;;;;5033168;28;20516;-72
2021/03/27 06:33:33;;;;;;;0.70;0.60;;;;;;;;;;5015672;28;20415;-72
2021/03/27 06:36:21;;;;;;;0.70;0.40;;;;;;;;;;5045453;28;20426;-74
2021/03/27 06:38:50;;;;;;;0.90;0.63;;;;;;;;;;5036272;28;20513;-71
2021/03/27 06:41:16;;;;;;;0.70;0.50;;;;;;;;;;5036309;28;20404;-76
2021/03/27 06:43:46;;;;;;;0.70;0.50;;;;;;;;;;5056507;28;20486;-72
2021/03/27 06:46:12;;;;;;;0.80;0.53;;;;;;;;;;5038891;28;20417;-79
2021/03/27 06:48:38;;;;;;;0.73;0.60;;;;;;;;;;5035886;28;20835;-76
2021/03/27 06:51:21;;;;;;;4.60;0.70;;;;;;;;;;5011669;28;20508;-80
2021/03/27 06:53:52;;;;;;;0.80;0.77;;;;;;;;;;5033434;28;20473;-78
2021/03/27 06:56:18;;;;;;;1.67;1.37;;;;;;;;;;5011686;28;20421;-76
2021/03/27 06:59:05;;;;;;;0.70;0.43;;;;;;;;;;5032934;28;20526;-74
2021/03/27 07:01:56;;;;;;;0.77;0.60;;;;;;;;;;5015885;28;20431;-76
2021/03/27 07:04:28;;;;;;;0.90;0.50;;;;;;;;;;5026879;28;20528;-75
2021/03/27 07:06:57;;;;;;;0.90;0.60;;;;;;;;;;5031620;28;20404;-76
2021/03/27 07:09:26;;;;;;;1.63;1.10;;;;;;;;;;5012232;28;20464;-75
2021/03/27 07:12:13;;;;;;;0.70;0.60;;;;;;;;;;5014847;28;20425;-77
2021/03/27 07:14:56;;;;;;;0.80;0.67;;;;;;;;;;5032255;28;20468;-77
2021/03/27 07:17:31;;;;;;;1.93;1.57;;;;;;;;;;5030056;28;20481;-75
2021/03/27 07:20:16;;;;;;;114.37;99.47;;;;;;;;;;5033038;28;20413;-77
2021/03/27 07:22:44;;;;;;;85.80;76.47;;;;;;;;;;5009378;28;20500;-77
2021/03/27 07:25:29;;;;;;;1.13;1.00;;;;;;;;;;5013089;28;20409;-77
2021/03/27 07:28:04;;;;;;;50.33;27.57;;;;;;;;;;5029611;28;20940;-78
2021/03/27 07:30:36;;;;;;;32.20;20.97;;;;;;;;;;5011531;28;20410;-76
2021/03/27 07:33:27;;;;;;;0.97;0.70;;;;;;;;;;5032495;28;20397;-76
2021/03/27 07:36:18;;;;;;;1.10;1.00;;;;;;;;;;5017273;28;20437;-75
2021/03/27 07:39:14;;;;;;;9.30;8.33;;;;;;;;;;5012268;28;20822;-75
2021/03/27 07:41:45;;;;;;;1.23;0.87;;;;;;;;;;5017565;28;20421;-79
2021/03/27 07:44:20;;;;;;;1.17;0.70;;;;;;;;;;5029963;28;20404;-77
2021/03/27 07:47:05;;;;;;;1.30;1.07;;;;;;;;;;5014692;28;21085;-78
2021/03/27 07:49:40;;;;;;;1.00;0.90;;;;;;;;;;5032367;28;20479;-77
2021/03/27 07:52:15;;;;;;;8.30;7.57;;;;;;;;;;5014359;28;20408;-76
2021/03/27 07:54:53;;;;;;;1.37;1.07;;;;;;;;;;5015454;28;20542;-78
2021/03/27 07:57:37;;;;;;;0.70;0.60;;;;;;;;;;5028942;28;20745;-77
2021/03/27 08:00:14;;;;;;;0.77;0.63;;;;;;;;;;5031671;28;21009;-77
2021/03/27 08:02:44;;;;;;;1.00;0.70;;;;;;;;;;5034408;28;20403;-76
2021/03/27 08:05:20;;;;;;;0.70;0.60;;;;;;;;;;5033966;28;20404;-76
2021/03/27 08:08:07;;;;;;;0.80;0.70;;;;;;;;;;5012122;28;20782;-78
2021/03/27 08:10:33;;;;;;;1.30;0.90;;;;;;;;;;5011773;28;20419;-76
2021/03/27 08:13:08;;;;;;;1.43;1.13;;;;;;;;;;5015385;28;20446;-77
2021/03/27 08:15:53;;;;;;;0.70;0.53;;;;;;;;;;5029936;28;20560;-77
2021/03/27 08:18:43;;;;;;;0.90;0.70;;;;;;;;;;5029577;28;20432;-76
2021/03/27 08:21:18;;;;;;;0.70;0.50;;;;;;;;;;5014441;28;20771;-76
2021/03/27 08:24:03;;;;;;;0.70;0.50;;;;;;;;;;5013338;28;20501;-77
2021/03/27 08:26:44;;;;;;;0.80;0.70;;;;;;;;;;5047880;28;20391;-77
2021/03/27 08:29:29;;;;;;;1.00;0.73;;;;;;;;;;5033902;28;20439;-79
2021/03/27 08:32:06;;;;;;;1.70;1.10;;;;;;;;;;5028844;28;20420;-77
2021/03/27 08:34:49;;;;;;;1.20;1.10;;;;;;;;;;5036939;28;20453;-78
2021/03/27 08:37:26;;;;;;;1.53;1.00;;;;;;;;;;5038591;28;20468;-76
2021/03/27 08:40:22;;;;;;;1.97;0.60;;;;;;;;;;5030703;28;20465;-76
2021/03/27 08:42:48;;;;;;;2.13;1.07;;;;;;;;;;4993428;28;20443;-75
2021/03/27 08:45:16;;;;;;;1.47;0.80;;;;;;;;;;5012963;28;20462;-78
2021/03/27 08:47:54;;;;;;;2.10;1.60;;;;;;;;;;5027777;28;20424;-74
2021/03/27 08:50:23;;;;;;;1.67;1.00;;;;;;;;;;5011279;28;20435;-75
2021/03/27 08:52:49;;;;;;;1.30;1.00;;;;;;;;;;5030597;28;20407;-76
2021/03/27 08:55:30;;;;;;;1.57;0.70;;;;;;;;;;5028862;28;20463;-76
2021/03/27 08:58:08;;;;;;;2.50;1.20;;;;;;;;;;5014384;28;20481;-74
2021/03/27 09:00:34;;;;;;;2.93;1.10;;;;;;;;;;5011821;28;20465;-75
2021/03/27 09:03:22;;;;;;;1.40;0.90;;;;;;;;;;5012974;28;20414;-74
2021/03/27 09:05:52;;;;;;;2.23;1.50;;;;;;;;;;5012604;28;20959;-73
2021/03/27 09:08:27;;;;;;;1.00;0.90;;;;;;;;;;5030110;28;20426;-76
2021/03/27 09:11:02;;;;;;;1.67;0.90;;;;;;;;;;5012227;28;20531;-76
2021/03/27 09:13:28;;;;;;;0.97;0.87;;;;;;;;;;5029645;28;20416;-76
2021/03/27 09:16:13;;;;;;;1.07;0.97;;;;;;;;;;5028512;28;20442;-76
2021/03/27 09:19:04;;;;;;;1.40;1.10;;;;;;;;;;5030363;28;20458;-74
2021/03/27 09:21:59;;;;;;;2.70;0.93;;;;;;;;;;5012121;28;20907;-77
2021/03/27 09:24:30;;;;;;;0.80;0.53;;;;;;;;;;5030538;28;20411;-76
2021/03/27 09:27:14;;;;;;;6.67;1.13;;;;;;;;;;5012538;28;20427;-75
2021/03/27 09:29:59;;;;;;;1.33;0.80;;;;;;;;;;5010561;28;20440;-77
2021/03/27 09:32:33;;;;;;;1.17;1.07;;;;;;;;;;5035524;28;20796;-77
2021/03/27 09:35:20;;;;;;;0.93;0.53;;;;;;;;;;5033583;28;20518;-79
2021/03/27 09:38:04;;;;;;;2.90;0.87;;;;;;;;;;5053412;28;20419;-80
2021/03/27 09:41:00;;;;;;;1.30;0.90;;;;;;;;;;5033124;28;20432;-77
2021/03/27 09:43:26;;;;;;;1.30;0.70;;;;;;;;;;5022938;28;20441;-80
2021/03/27 09:46:01;;;;;;;0.70;0.50;;;;;;;;;;5023534;28;20424;-78
2021/03/27 09:48:28;;;;;;;2.20;1.70;;;;;;;;;;5037361;28;20535;-80
2021/03/27 09:51:04;;;;;;;1.43;1.00;;;;;;;;;;5036267;28;20405;-80
2021/03/27 09:53:46;;;;;;;0.83;0.73;;;;;;;;;;5034021;28;20385;-78
2021/03/27 09:56:16;;;;;;;1.87;1.00;;;;;;;;;;5028473;28;20463;-80
2021/03/27 09:59:00;;;;;;;2.13;1.63;;;;;;;;;;5026650;28;20415;-80
2021/03/27 10:01:26;;;;;;;3.73;1.70;;;;;;;;;;5036025;28;20421;-79
2021/03/27 10:04:03;;;;;;;2.17;1.03;;;;;;;;;;5042112;28;20898;-74
2021/03/27 10:06:38;;;;;;;1.53;0.83;;;;;;;;;;5036187;28;21057;-75
2021/03/27 10:09:09;;;;;;;1.37;1.07;;;;;;;;;;5021641;28;20497;-82
2021/03/27 10:11:37;;;;;;;6.33;1.43;;;;;;;;;;5034471;28;20469;-71
2021/03/27 10:14:09;;;;;;;0.80;0.70;;;;;;;;;;5036086;28;20457;-78
2021/03/27 10:16:38;;;;;;;1.00;0.60;;;;;;;;;;5031909;28;20424;-78
2021/03/27 10:19:24;;;;;;;0.83;0.60;;;;;;;;;;5027936;28;20505;-78
2021/03/27 10:21:50;;;;;;;0.80;0.60;;;;;;;;;;5014462;28;20414;-74
2021/03/27 10:24:25;;;;;;;0.70;0.50;;;;;;;;;;5038377;28;20927;-78
2021/03/27 10:27:01;;;;;;;1.97;0.60;;;;;;;;;;5032303;28;20415;-76
2021/03/27 10:29:45;;;;;;;0.83;0.73;;;;;;;;;;5017080;28;20468;-79
2021/03/27 10:32:30;;;;;;;4.70;0.70;;;;;;;;;;5017072;28;20421;-75
2021/03/27 10:35:17;;;;;;;1.20;0.73;;;;;;;;;;5026206;28;20468;-77
2021/03/27 10:38:05;;;;;;;0.90;0.67;;;;;;;;;;5039773;28;20420;-77
2021/03/27 10:40:44;;;;;;;0.70;0.60;;;;;;;;;;5015318;28;20920;-77
2021/03/27 10:43:28;;;;;;;0.73;0.50;;;;;;;;;;5026247;28;20931;-76
2021/03/27 10:46:13;;;;;;;1.37;1.07;;;;;;;;;;5018686;28;20484;-76
2021/03/27 10:48:53;;;;;;;0.70;0.40;;;;;;;;;;5022898;28;20434;-79
2021/03/27 10:51:35;;;;;;;0.90;0.57;;;;;;;;;;5032795;28;20943;-78
2021/03/27 10:54:01;;;;;;;0.70;0.40;;;;;;;;;;5034686;28;20461;-78
2021/03/27 10:56:45;;;;;;;1.27;0.90;;;;;;;;;;5050869;28;20409;-76
2021/03/27 10:59:16;;;;;;;1.97;0.87;;;;;;;;;;5033639;28;20444;-80
2021/03/27 11:01:52;;;;;;;4.23;1.20;;;;;;;;;;5031678;28;20451;-79
2021/03/27 11:04:21;;;;;;;0.70;0.50;;;;;;;;;;5018226;28;20472;-75
2021/03/27 11:06:56;;;;;;;1.00;0.70;;;;;;;;;;5017417;28;20493;-73
2021/03/27 11:09:32;;;;;;;2.40;1.03;;;;;;;;;;5040364;28;20439;-75
2021/03/27 11:12:01;;;;;;;0.70;0.40;;;;;;;;;;5031656;28;20414;-74
2021/03/27 11:14:38;;;;;;;1.40;1.03;;;;;;;;;;5034591;28;20455;-75
2021/03/27 11:17:18;;;;;;;1.30;1.10;;;;;;;;;;5038060;28;20413;-74
2021/03/27 11:19:59;;;;;;;1.17;0.67;;;;;;;;;;5036016;28;20471;-72
2021/03/27 11:22:25;;;;;;;0.83;0.53;;;;;;;;;;5030366;28;21351;-73
2021/03/27 11:24:57;;;;;;;0.70;0.50;;;;;;;;;;5017498;28;20414;-74
2021/03/27 11:27:43;;;;;;;0.73;0.47;;;;;;;;;;5023363;28;20424;-72
2021/03/27 11:30:09;;;;;;;0.80;0.50;;;;;;;;;;5001942;28;20454;-72
2021/03/27 11:32:35;;;;;;;1.03;0.90;;;;;;;;;;5029353;28;20411;-76
2021/03/27 11:35:04;;;;;;;0.90;0.70;;;;;;;;;;5034293;28;20501;-71
2021/03/27 11:37:42;;;;;;;1.10;0.67;;;;;;;;;;5033448;28;20411;-70
2021/03/27 11:40:08;;;;;;;1.20;0.73;;;;;;;;;;5051083;28;20399;-72
2021/03/27 11:42:48;;;;;;;1.77;1.33;;;;;;;;;;5023887;28;20792;-71
2021/03/27 11:45:15;;;;;;;0.70;0.50;;;;;;;;;;5024999;28;20428;-72
2021/03/27 11:47:45;;;;;;;0.70;0.50;;;;;;;;;;5019198;28;20481;-72
2021/03/27 11:50:17;;;;;;;0.90;0.77;;;;;;;;;;5032219;28;20906;-73
2021/03/27 11:52:46;;;;;;;0.93;0.70;;;;;;;;;;5012589;28;20403;-72
2021/03/27 11:55:21;;;;;;;1.10;0.70;;;;;;;;;;5045001;28;20482;-73
2021/03/27 11:57:53;;;;;;;0.77;0.60;;;;;;;;;;5035835;28;20784;-74
2021/03/27 12:03:17;;;;;;;1.20;1.10;;;;;;;;;;5012017;28;20428;-72
2021/03/27 12:05:43;;;;;;;0.77;0.67;;;;;;;;;;5000078;28;20434;-73
2021/03/27 12:08:15;;;;;;;0.80;0.70;;;;;;;;;;5035080;28;20436;-72
2021/03/27 12:10:54;;;;;;;0.70;0.40;;;;;;;;;;5027954;28;20419;-72
2021/03/27 12:13:26;;;;;;;0.90;0.60;;;;;;;;;;5033188;28;20502;-72
2021/03/27 12:15:52;;;;;;;0.70;0.40;;;;;;;;;;5038479;28;20979;-73
2021/03/27 12:18:37;;;;;;;0.70;0.60;;;;;;;;;;5022783;28;20460;-72
2021/03/27 12:21:09;;;;;;;0.73;0.60;;;;;;;;;;5025199;28;20433;-72
2021/03/27 12:23:41;;;;;;;0.93;0.93;;;;;;;;;;5028549;28;20416;-74
2021/03/27 12:26:20;;;;;;;0.80;0.80;;;;;;;;;;5011165;28;20886;-72
2021/03/27 12:29:01;;;;;;;0.80;0.60;;;;;;;;;;5030271;28;20781;-72
2021/03/27 12:31:33;;;;;;;0.70;0.40;;;;;;;;;;5021450;28;20411;-72
2021/03/27 12:34:09;;;;;;;0.70;0.40;;;;;;;;;;5028868;28;20474;-73
2021/03/27 12:36:39;;;;;;;0.70;0.43;;;;;;;;;;5012640;28;20427;-72
2021/03/27 12:39:08;;;;;;;0.70;0.50;;;;;;;;;;5008777;28;20471;-74
2021/03/27 12:41:42;;;;;;;0.70;0.50;;;;;;;;;;5027984;28;20433;-73
2021/03/27 12:44:09;;;;;;;0.70;0.60;;;;;;;;;;5047532;28;20413;-72
2021/03/27 12:46:42;;;;;;;0.70;0.50;;;;;;;;;;5029048;28;21033;-73
2021/03/27 12:49:23;;;;;;;1.33;0.77;;;;;;;;;;5026712;28;20433;-72
2021/03/27 12:52:04;;;;;;;1.20;0.73;;;;;;;;;;5029715;28;20485;-72
2021/03/27 12:54:37;;;;;;;1.00;0.60;;;;;;;;;;5023950;28;20807;-73
2021/03/27 12:57:11;;;;;;;0.83;0.70;;;;;;;;;;5030491;28;20419;-72
2021/03/27 12:59:43;;;;;;;3.97;1.13;;;;;;;;;;5030610;28;20428;-72
2021/03/27 13:02:24;;;;;;;1.20;0.90;;;;;;;;;;5011494;28;20408;-71
2021/03/27 13:04:50;;;;;;;9.70;1.10;;;;;;;;;;5025259;28;20414;-72
2021/03/27 13:07:16;;;;;;;1.20;0.97;;;;;;;;;;5030340;28;20512;-71
2021/03/27 13:10:00;;;;;;;4.50;1.07;;;;;;;;;;5030506;28;20961;-73
2021/03/27 13:12:42;;;;;;;4.20;1.20;;;;;;;;;;5012029;28;20489;-72
2021/03/27 13:15:40;;;;;;;3.63;1.53;;;;;;;;;;5030455;28;20479;-72
2021/03/27 13:18:06;;;;;;;0.80;0.67;;;;;;;;;;4984647;28;20463;-73
2021/03/27 13:20:35;;;;;;;1.17;0.93;;;;;;;;;;5028897;28;20500;-70
2021/03/27 13:23:13;;;;;;;1.30;1.03;;;;;;;;;;5013089;28;20774;-72
2021/03/27 13:25:40;;;;;;;2.20;1.10;;;;;;;;;;5031787;28;20408;-71
2021/03/27 13:28:12;;;;;;;6.77;1.53;;;;;;;;;;5037880;28;20465;-72
2021/03/27 13:30:58;;;;;;;1.30;0.60;;;;;;;;;;5013462;28;20422;-72
2021/03/27 13:33:38;;;;;;;1.67;1.30;;;;;;;;;;5037544;28;20514;-75
2021/03/27 13:36:08;;;;;;;0.70;0.50;;;;;;;;;;5035039;28;20486;-73
2021/03/27 13:38:53;;;;;;;2.23;0.90;;;;;;;;;;5027414;28;20428;-72
2021/03/27 13:41:42;;;;;;;0.90;0.63;;;;;;;;;;5030115;28;20411;-71
2021/03/27 13:44:07;;;;;;;1.17;1.07;;;;;;;;;;5012151;28;20417;-71
2021/03/27 13:46:35;;;;;;;1.17;1.07;;;;;;;;;;5012969;28;20559;-71
2021/03/27 13:49:05;;;;;;;0.70;0.50;;;;;;;;;;5031588;28;20429;-71
2021/03/27 13:52:03;;;;;;;2.10;1.53;;;;;;;;;;5032462;28;20395;-72
2021/03/27 13:54:32;;;;;;;1.57;0.73;;;;;;;;;;5000881;28;20454;-71
2021/03/27 13:56:58;;;;;;;4.17;1.00;;;;;;;;;;5036063;28;20498;-72
2021/03/27 13:59:30;;;;;;;1.47;1.13;;;;;;;;;;5017916;28;20462;-72
2021/03/27 14:02:17;;;;;;;1.43;0.70;;;;;;;;;;5034617;28;20506;-72
2021/03/27 14:04:46;;;;;;;0.90;0.70;;;;;;;;;;5049405;28;21091;-71
2021/03/27 14:07:32;;;;;;;23.27;1.40;;;;;;;;;;5030604;28;20412;-72
2021/03/27 14:09:57;;;;;;;2.03;1.00;;;;;;;;;;5034831;28;20458;-72
2021/03/27 14:12:30;;;;;;;3.63;1.07;;;;;;;;;;5030500;28;20390;-72
2021/03/27 14:15:05;;;;;;;2.03;1.17;;;;;;;;;;5019677;28;20430;-73
2021/03/27 14:17:37;;;;;;;1.40;1.10;;;;;;;;;;5025534;28;20890;-72
2021/03/27 14:20:42;;;;;;;1.60;1.40;;;;;;;;;;5033093;28;20427;-79
2021/03/27 14:23:26;;;;;;;3.90;2.80;;;;;;;;;;4969984;28;20485;-76
2021/03/27 14:26:14;;;;;;;1.47;1.17;;;;;;;;;;4972357;28;20410;-74
2021/03/27 14:28:40;;;;;;;1.67;1.13;;;;;;;;;;5020863;28;20466;-74
2021/03/27 14:31:24;;;;;;;1.63;1.40;;;;;;;;;;5034341;28;20432;-74
2021/03/27 14:34:09;;;;;;;2.13;1.27;;;;;;;;;;5028362;28;20390;-75
2021/03/27 14:36:40;;;;;;;2.77;2.00;;;;;;;;;;5039895;28;20412;-74
2021/03/27 14:39:19;;;;;;;0.90;0.73;;;;;;;;;;5034987;28;20825;-73
2021/03/27 14:41:45;;;;;;;0.77;0.60;;;;;;;;;;5014761;28;20885;-74
2021/03/27 14:44:16;;;;;;;0.70;0.50;;;;;;;;;;5013963;28;20416;-74
2021/03/27 14:46:47;;;;;;;0.70;0.50;;;;;;;;;;5030270;28;20447;-74
2021/03/27 14:49:18;;;;;;;0.70;0.57;;;;;;;;;;5019666;28;20457;-75
2021/03/27 14:51:49;;;;;;;3.17;1.13;;;;;;;;;;5032701;28;20535;-74
2021/03/27 14:54:35;;;;;;;0.80;0.60;;;;;;;;;;5019329;28;20462;-75
2021/03/27 14:57:04;;;;;;;0.70;0.50;;;;;;;;;;5029612;28;20460;-74
2021/03/27 14:59:32;;;;;;;0.70;0.50;;;;;;;;;;5016628;28;20449;-74
2021/03/27 15:01:58;;;;;;;2.43;2.23;;;;;;;;;;5030867;28;20814;-72
2021/03/27 15:04:38;;;;;;;0.77;0.63;;;;;;;;;;5035849;28;20424;-75
2021/03/27 15:07:14;;;;;;;1.00;0.73;;;;;;;;;;5039178;28;20411;-74
2021/03/27 15:09:59;;;;;;;1.13;0.80;;;;;;;;;;5041611;28;20519;-74
2021/03/27 15:12:32;;;;;;;11.20;1.23;;;;;;;;;;5049692;28;20411;-73
2021/03/27 15:15:19;;;;;;;3.57;0.67;;;;;;;;;;5016563;28;20857;-74
2021/03/27 15:17:48;;;;;;;3.10;1.17;;;;;;;;;;5016264;28;21027;-75
2021/03/27 15:20:18;;;;;;;1.10;1.00;;;;;;;;;;5011336;28;20535;-75
2021/03/27 15:22:52;;;;;;;2.60;0.70;;;;;;;;;;5032660;28;20549;-76
2021/03/27 15:28:24;;;;;;;1.00;0.80;;;;;;;;;;5031323;28;20413;-74
2021/03/27 15:31:04;;;;;;;0.70;0.50;;;;;;;;;;5017730;28;20519;-76
2021/03/27 15:33:33;;;;;;;0.90;0.60;;;;;;;;;;5013220;28;20411;-75
2021/03/27 15:35:59;;;;;;;1.53;0.70;;;;;;;;;;5029754;28;20495;-75
2021/03/27 15:38:25;;;;;;;1.83;0.60;;;;;;;;;;5033141;28;20472;-74
2021/03/27 15:41:11;;;;;;;1.87;1.77;;;;;;;;;;5013336;28;20412;-74